»·PEaware :: N84828 L71-KSFO

N84828 :: L71-KSFO

FLIGHT INFORMATION

Flight Status: Arrived
Operator: Privately registered:
United States
More flights under this callsign
Pilot: Dan T. (2320)
Aircraft: CESSNA 208 CARAVAN
(C208)
More flights by this aircraft type
Origin: L71 California City Mun
United States
Destination: KSFO San Francisco Intl
United States
More flights between these airports :: More routes between these airports
Route: +LHS V459 EXTRA V165 CZQ MOD5
File this flight plan on PilotEdge
Remarks:
Altitude:
(Current/Filed)
12,000ft
Speed:
(Current/Filed)
154kts
Departed: 11-Jun-14 08:57 AM
Arrived: 11-Jun-14 11:09 AM
Distance/Time
Traveled:
258nm/2:12
Distance/Time
To Go:
Arrived

Flight Plot

Page will automatically refresh every two minutes.

Flight plan parsing failed; only flown route is shown


Map Options




Map Legend


Flown Route
Filed Route
Departure Airport
Arrival Airport
Navaid (VOR, NDB)
Fix

Horizontal Profiles

Position Reports

Time Latitude Longitude Heading Altitude Ground
Speed
11-Jun-14 08:48 35.152910 -118.006796 341 2407ft 0kts
11-Jun-14 08:49 35.153110 -118.008275 254 2407ft 24kts
11-Jun-14 08:54 35.153279 -118.007113 259 2407ft 0kts
11-Jun-14 08:55 35.150474 -118.018479 252 2700ft 63kts
11-Jun-14 08:56 35.141913 -118.047861 256 3432ft 106kts
11-Jun-14 08:57 35.132532 -118.082973 248 4219ft 111kts
11-Jun-14 08:58 35.108396 -118.108876 225 5006ft 116kts
11-Jun-14 08:59 35.084358 -118.134667 229 5780ft 114kts
11-Jun-14 09:00 35.062274 -118.161617 233 6557ft 110kts
11-Jun-14 09:01 35.041082 -118.188108 233 7342ft 107kts
11-Jun-14 09:02 35.027025 -118.216005 281 8048ft 97kts
11-Jun-14 09:03 35.028415 -118.255780 268 8254ft 123kts
11-Jun-14 09:04 35.031905 -118.294012 282 8923ft 107kts
11-Jun-14 09:05 35.032763 -118.329422 274 9589ft 101kts
11-Jun-14 09:06 35.031593 -118.362739 274 10276ft 94kts
11-Jun-14 09:07 35.030158 -118.393124 274 10957ft 81kts
11-Jun-14 09:08 35.028622 -118.423083 274 11291ft 96kts
11-Jun-14 09:09 35.027427 -118.457963 274 11555ft 107kts
11-Jun-14 09:10 35.026401 -118.495544 274 11618ft 113kts
11-Jun-14 09:11 35.025435 -118.534096 274 11870ft 114kts
11-Jun-14 09:12 35.024458 -118.573164 274 12134ft 117kts
11-Jun-14 09:13 35.023662 -118.615571 274 12140ft 130kts
11-Jun-14 09:14 35.022944 -118.660358 273 12139ft 133kts
11-Jun-14 09:15 35.033072 -118.697953 338 12142ft 127kts
11-Jun-14 09:16 35.067102 -118.711060 341 12124ft 127kts
11-Jun-14 09:17 35.100707 -118.723417 342 12100ft 130kts
11-Jun-14 09:18 35.135346 -118.735897 343 12069ft 129kts
11-Jun-14 09:19 35.170053 -118.745549 349 12037ft 128kts
11-Jun-14 09:20 35.205027 -118.755094 347 12003ft 128kts
11-Jun-14 09:21 35.239429 -118.766394 345 11993ft 128kts
11-Jun-14 09:22 35.273521 -118.778509 345 11985ft 127kts
11-Jun-14 09:23 35.307615 -118.791069 345 11976ft 128kts
11-Jun-14 09:24 35.341589 -118.803794 345 11968ft 128kts
11-Jun-14 09:25 35.373522 -118.815829 345 11968ft 127kts
11-Jun-14 09:26 35.407565 -118.828705 346 11968ft 128kts
11-Jun-14 09:27 35.441664 -118.841622 346 11968ft 128kts
11-Jun-14 09:28 35.475903 -118.854612 346 11968ft 129kts
11-Jun-14 09:29 35.510511 -118.867731 347 11968ft 131kts
11-Jun-14 09:30 35.545971 -118.881189 346 11968ft 134kts
11-Jun-14 09:31 35.581105 -118.894452 346 11972ft 135kts
11-Jun-14 09:32 35.611041 -118.905819 345 11972ft 135kts
11-Jun-14 09:33 35.652980 -118.921808 345 11971ft 135kts
11-Jun-14 09:34 35.682894 -118.933243 344 11971ft 134kts
11-Jun-14 09:35 35.718527 -118.946760 341 11978ft 134kts
11-Jun-14 09:36 35.754350 -118.960448 338 11986ft 136kts
11-Jun-14 09:37 35.791235 -118.974665 336 11994ft 142kts
11-Jun-14 09:38 35.829999 -118.989679 338 11999ft 150kts
11-Jun-14 09:39 35.870862 -119.005378 339 11999ft 156kts
11-Jun-14 09:40 35.912763 -119.021381 339 11999ft 158kts
11-Jun-14 09:41 35.953880 -119.040012 333 11999ft 157kts
11-Jun-14 09:42 35.995587 -119.057256 340 11999ft 159kts
11-Jun-14 09:43 36.037163 -119.075120 328 11999ft 156kts
11-Jun-14 09:44 36.076689 -119.098123 332 11997ft 157kts
11-Jun-14 09:45 36.116832 -119.117182 335 11996ft 157kts
11-Jun-14 09:46 36.157849 -119.136293 335 11993ft 157kts
11-Jun-14 09:47 36.198857 -119.155515 335 11991ft 157kts
11-Jun-14 09:48 36.239720 -119.174732 336 11989ft 157kts
11-Jun-14 09:49 36.280872 -119.194136 336 11988ft 158kts
11-Jun-14 09:50 36.321975 -119.213545 336 11986ft 158kts
11-Jun-14 09:51 36.356930 -119.245220 317 11983ft 155kts
11-Jun-14 09:52 36.389986 -119.279619 316 11981ft 155kts
11-Jun-14 09:53 36.422890 -119.314533 315 11978ft 154kts
11-Jun-14 09:54 36.455181 -119.349141 315 11975ft 151kts
11-Jun-14 09:55 36.486674 -119.383081 315 11972ft 148kts
11-Jun-14 09:56 36.517322 -119.416246 316 11984ft 148kts
11-Jun-14 09:57 36.548340 -119.449932 319 11982ft 145kts
11-Jun-14 09:58 36.578398 -119.481912 320 11982ft 146kts
11-Jun-14 09:59 36.609516 -119.515314 319 11980ft 148kts
11-Jun-14 10:00 36.640933 -119.549336 318 11980ft 149kts
11-Jun-14 10:01 36.672380 -119.583685 318 11980ft 150kts
11-Jun-14 10:02 36.703932 -119.618074 319 11980ft 150kts
11-Jun-14 10:03 36.735568 -119.652491 318 11980ft 150kts
11-Jun-14 10:04 36.767018 -119.686720 319 11980ft 150kts
11-Jun-14 10:05 36.799001 -119.721604 318 11940ft 152kts
11-Jun-14 10:06 36.830772 -119.756262 319 11939ft 151kts
11-Jun-14 10:07 36.862467 -119.790931 319 11941ft 150kts
11-Jun-14 10:08 36.893940 -119.825018 320 11942ft 149kts
11-Jun-14 10:09 36.925594 -119.858379 320 11943ft 147kts
11-Jun-14 10:10 36.956945 -119.891242 320 11945ft 146kts
11-Jun-14 10:11 36.990174 -119.920286 324 11946ft 145kts
11-Jun-14 10:12 37.022200 -119.950589 320 11947ft 144kts
11-Jun-14 10:13 37.053068 -119.982469 317 11948ft 143kts
11-Jun-14 10:14 37.083562 -120.014793 317 11948ft 143kts
11-Jun-14 10:15 37.113961 -120.047268 317 11948ft 143kts
11-Jun-14 10:16 37.139227 -120.074317 317 11948ft 143kts
11-Jun-14 10:17 37.173987 -120.111312 318 11947ft 142kts
11-Jun-14 10:18 37.199386 -120.138029 318 11945ft 142kts
11-Jun-14 10:19 37.229536 -120.170246 319 11940ft 142kts
11-Jun-14 10:20 37.259645 -120.202594 320 11935ft 142kts
11-Jun-14 10:21 37.289865 -120.235105 321 11930ft 144kts
11-Jun-14 10:22 37.320349 -120.267918 320 11929ft 144kts
11-Jun-14 10:23 37.350764 -120.300700 320 11930ft 143kts
11-Jun-14 10:24 37.381055 -120.333389 317 11929ft 143kts
11-Jun-14 10:25 37.411692 -120.366557 316 11934ft 146kts
11-Jun-14 10:26 37.443048 -120.400597 316 11937ft 149kts
11-Jun-14 10:27 37.474326 -120.434567 317 11938ft 147kts
11-Jun-14 10:28 37.495584 -120.476476 288 11939ft 144kts
11-Jun-14 10:29 37.508657 -120.524323 289 11939ft 144kts
11-Jun-14 10:30 37.521596 -120.572332 289 11939ft 144kts
11-Jun-14 10:31 37.534610 -120.620562 290 11939ft 145kts
11-Jun-14 10:32 37.547747 -120.669102 291 11939ft 146kts
11-Jun-14 10:33 37.561179 -120.717362 291 11940ft 148kts
11-Jun-14 10:34 37.574838 -120.766682 291 11940ft 149kts
11-Jun-14 10:35 37.588325 -120.816043 291 11940ft 148kts
11-Jun-14 10:36 37.601659 -120.865518 291 11940ft 148kts
11-Jun-14 10:37 37.614825 -120.914964 291 11940ft 148kts
11-Jun-14 10:38 37.627671 -120.964490 276 11936ft 150kts
11-Jun-14 10:39 37.620502 -121.016799 262 11940ft 151kts
11-Jun-14 10:40 37.613513 -121.069159 263 11940ft 151kts
11-Jun-14 10:41 37.607704 -121.121096 265 11940ft 150kts
11-Jun-14 10:42 37.602762 -121.173238 265 11940ft 150kts
11-Jun-14 10:43 37.597334 -121.225643 264 11941ft 150kts
11-Jun-14 10:44 37.591727 -121.277831 264 11941ft 149kts
11-Jun-14 10:45 37.586092 -121.329501 265 11943ft 148kts
11-Jun-14 10:46 37.580446 -121.380688 265 11945ft 146kts
11-Jun-14 10:47 37.574835 -121.431673 264 11949ft 144kts
11-Jun-14 10:48 37.568918 -121.484360 265 11067ft 160kts
11-Jun-14 10:49 37.563015 -121.537172 265 10956ft 145kts
11-Jun-14 10:50 37.557109 -121.590206 264 10385ft 169kts
11-Jun-14 10:51 37.547247 -121.650904 254 9388ft 180kts
11-Jun-14 10:52 37.532493 -121.711064 254 8394ft 173kts
11-Jun-14 10:53 37.520018 -121.763882 254 7971ft 136kts
11-Jun-14 10:54 37.508926 -121.810433 253 7976ft 146kts
11-Jun-14 10:55 37.496725 -121.860778 252 7977ft 153kts
11-Jun-14 10:56 37.484319 -121.911820 251 7975ft 154kts
11-Jun-14 10:57 37.471427 -121.962668 249 7974ft 145kts
11-Jun-14 10:58 37.481908 -122.009274 295 7151ft 149kts
11-Jun-14 10:59 37.498053 -122.047332 295 6220ft 148kts
11-Jun-14 11:00 37.515978 -122.093353 295 4932ft 149kts
11-Jun-14 11:01 37.532666 -122.140824 295 3638ft 148kts
11-Jun-14 11:02 37.548843 -122.185327 295 2988ft 133kts
11-Jun-14 11:03 37.564250 -122.226495 293 2987ft 127kts
11-Jun-14 11:04 37.576980 -122.269622 293 2345ft 133kts
11-Jun-14 11:05 37.592389 -122.307047 292 1557ft 103kts
11-Jun-14 11:06 37.605280 -122.337833 289 329ft 88kts
11-Jun-14 11:07 37.615711 -122.362401 301 7ft 39kts
11-Jun-14 11:08 37.619941 -122.372084 299 13ft 23kts
11-Jun-14 11:09 37.622819 -122.378809 296 24ft 23kts
11-Jun-14 11:10 37.624822 -122.381335 13 22ft 0kts
11-Jun-14 11:11 37.625406 -122.381906 293 21ft 4kts
11-Jun-14 11:12 37.627491 -122.384265 48 17ft 13kts

Navigation Log

Ident Type
Flight plan parsing failed, navigation log unavailable